Time;durP1;ratioP1;P1;durP2;ratioP2;P2;SDS_P1;SDS_P2;PMS_P1;PMS_P2;Temp;Humidity;BMP_temperature;BMP_pressure;BME280_temperature;BME280_humidity;BME280_pressure;Samples;Min_cycle;Max_cycle;Signal;HPM_P1;HPM_P2
2022/09/20 00:01:10;;;;;;;11.88;1.60;;;;;;;11.42;100.00;101765.94;20820815;28;20135;-62
2022/09/20 00:11:33;;;;;;;11.70;1.60;;;;;;;11.29;100.00;101762.28;20810093;28;20053;-60
2022/09/20 00:21:55;;;;;;;11.93;1.42;;;;;;;11.33;100.00;101768.19;20817408;28;20052;-60
2022/09/20 00:32:16;;;;;;;12.97;1.37;;;;;;;11.28;100.00;101765.81;20811239;28;20041;-60
2022/09/20 00:42:38;;;;;;;7.18;1.08;;;;;;;11.02;100.00;101773.28;20816462;28;20326;-60
2022/09/20 00:53:15;;;;;;;6.38;1.10;;;;;;;10.98;100.00;101787.44;20804042;28;20171;-60
2022/09/20 01:03:38;;;;;;;11.68;1.67;;;;;;;11.00;100.00;101785.56;20798293;28;20540;-61
2022/09/20 01:13:59;;;;;;;9.40;1.40;;;;;;;10.98;100.00;101785.66;20811274;28;20448;-60
2022/09/20 01:24:41;;;;;;;13.77;1.30;;;;;;;10.87;100.00;101801.03;20797827;28;20073;-60
2022/09/20 01:35:03;;;;;;;;;;;;;;;10.56;100.00;101806.06;20799422;28;20087;-60
2022/09/20 01:45:31;;;;;;;9.60;1.40;;;;;;;10.57;100.00;101812.09;20801335;28;19921;-60
2022/09/20 01:56:26;;;;;;;9.40;2.22;;;;;;;10.63;100.00;101815.25;20799666;28;20046;-60
2022/09/20 02:07:42;;;;;;;11.88;1.60;;;;;;;10.46;100.00;101803.97;20803662;28;20452;-61
2022/09/20 02:18:40;;;;;;;9.63;1.35;;;;;;;10.35;100.00;101805.41;20705997;28;20053;-61
2022/09/20 02:29:17;;;;;;;7.97;1.23;;;;;;;10.53;100.00;101790.56;20826361;28;20049;-61
2022/09/20 02:40:10;;;;;;;10.75;1.67;;;;;;;10.57;100.00;101807.75;20823145;28;20112;-61
2022/09/20 02:50:53;;;;;;;9.35;1.30;;;;;;;10.46;100.00;101816.19;20824328;28;20068;-60
2022/09/20 03:01:23;;;;;;;9.70;1.25;;;;;;;10.42;100.00;101825.06;20804395;28;20133;-61
2022/09/20 03:11:58;;;;;;;9.63;1.13;;;;;;;10.62;100.00;101825.78;20811076;28;20049;-62
2022/09/20 03:22:57;;;;;;;8.30;1.50;;;;;;;10.76;100.00;101828.56;20816433;28;20041;-61
2022/09/20 03:33:18;;;;;;;10.63;1.13;;;;;;;10.64;100.00;101835.19;20832782;28;20053;-61
2022/09/20 03:43:40;;;;;;;8.50;1.50;;;;;;;10.95;100.00;101843.19;20815327;28;20057;-61
2022/09/20 03:54:26;;;;;;;7.38;1.40;;;;;;;10.97;100.00;101837.94;20815701;28;20057;-61
2022/09/20 04:04:58;;;;;;;8.32;1.60;;;;;;;11.03;100.00;101843.69;20812728;28;20053;-60
2022/09/20 04:15:57;;;;;;;7.28;1.45;;;;;;;11.01;100.00;101839.44;20843456;28;20456;-61
2022/09/20 04:26:26;;;;;;;5.70;1.40;;;;;;;10.97;100.00;101845.75;20807845;28;20493;-62
2022/09/20 04:37:14;;;;;;;7.60;0.98;;;;;;;10.80;100.00;101862.22;20810468;28;20045;-61
2022/09/20 04:47:54;;;;;;;5.95;1.05;;;;;;;10.74;100.00;101867.75;20804903;28;20056;-62
2022/09/20 04:58:35;;;;;;;6.45;1.02;;;;;;;10.69;100.00;101869.72;20803388;28;20053;-62
2022/09/20 05:09:34;;;;;;;6.82;1.00;;;;;;;10.60;100.00;101882.38;20807279;28;20045;-63
2022/09/20 05:20:09;;;;;;;9.75;1.10;;;;;;;10.33;100.00;101878.47;20854803;28;20045;-63
2022/09/20 05:30:45;;;;;;;5.18;1.48;;;;;;;10.46;100.00;101887.38;20809137;28;20053;-62
2022/09/20 05:41:17;;;;;;;7.95;1.70;;;;;;;10.53;100.00;101900.06;20798072;28;20046;-62
2022/09/20 05:52:02;;;;;;;5.95;1.45;;;;;;;10.61;100.00;101905.78;20813819;28;20041;-62
2022/09/20 06:02:36;;;;;;;6.93;1.48;;;;;;;10.77;100.00;101911.91;20808403;28;20103;-61
2022/09/20 06:13:23;;;;;;;5.63;0.98;;;;;;;10.99;100.00;101909.97;20816571;28;20138;-61
2022/09/20 06:23:44;;;;;;;5.57;1.40;;;;;;;11.18;100.00;101909.91;20819103;28;20147;-62
2022/09/20 06:34:09;;;;;;;8.57;1.20;;;;;;;11.43;100.00;101921.66;20807668;28;20045;-61
2022/09/20 06:44:31;;;;;;;4.80;1.02;;;;;;;11.58;100.00;101947.03;20829087;28;20095;-62
2022/09/20 06:54:53;;;;;;;;;;;;;;;11.64;100.00;101962.41;20811859;28;20604;-62
2022/09/20 07:05:17;;;;;;;7.07;1.10;;;;;;;11.64;100.00;101960.63;20811119;28;19999;-60
2022/09/20 07:15:38;;;;;;;8.40;1.10;;;;;;;11.60;100.00;101971.31;20803364;28;20095;-61
2022/09/20 07:26:00;;;;;;;5.97;1.15;;;;;;;11.82;100.00;101977.09;20812545;28;20091;-61
2022/09/20 07:36:21;;;;;;;5.80;0.80;;;;;;;11.96;100.00;101983.34;20780770;28;20111;-61
2022/09/20 07:46:44;;;;;;;5.20;1.10;;;;;;;12.03;100.00;101982.06;20807151;28;20509;-61
2022/09/20 07:57:06;;;;;;;7.10;1.00;;;;;;;12.21;100.00;101991.56;20820962;28;20075;-63
2022/09/20 08:07:28;;;;;;;6.13;1.08;;;;;;;12.17;100.00;101994.44;20816116;28;20056;-61
2022/09/20 08:17:49;;;;;;;7.77;1.33;;;;;;;12.51;100.00;101996.03;20811720;28;20045;-60
2022/09/20 08:28:11;;;;;;;9.73;1.20;;;;;;;12.58;100.00;102007.84;20790936;28;20311;-61
2022/09/20 08:38:33;;;;;;;8.90;1.17;;;;;;;12.75;100.00;102009.53;20800587;28;20094;-61
2022/09/20 08:49:25;;;;;;;7.57;0.93;;;;;;;13.13;100.00;102024.00;20809972;28;20292;-60
2022/09/20 08:59:49;;;;;;;3.60;0.98;;;;;;;13.39;98.49;102029.44;20800757;28;20422;-61
2022/09/20 09:10:10;;;;;;;3.40;0.60;;;;;;;13.50;100.00;102037.56;20806538;28;20498;-61
2022/09/20 09:20:41;;;;;;;2.17;0.57;;;;;;;13.27;98.97;102035.38;20789474;28;20041;-60
2022/09/20 09:31:21;;;;;;;3.92;0.60;;;;;;;13.38;99.78;102040.03;20804443;28;20037;-60
2022/09/20 09:41:45;;;;;;;5.37;0.80;;;;;;;13.74;98.92;102057.97;20801534;28;20049;-61
2022/09/20 09:52:23;;;;;;;4.90;0.55;;;;;;;13.98;96.20;102051.28;20801284;28;20072;-61
2022/09/20 10:03:05;;;;;;;4.57;0.75;;;;;;;13.46;98.13;102049.13;20795402;28;21440;-61
2022/09/20 10:13:30;;;;;;;2.72;0.47;;;;;;;14.18;87.83;102035.25;20794781;28;20111;-61
2022/09/20 10:24:13;;;;;;;3.85;0.68;;;;;;;14.38;87.43;102052.38;20801035;28;20547;-61
2022/09/20 10:34:40;;;;;;;6.78;0.50;;;;;;;14.12;90.14;102055.69;20800362;28;20058;-61
2022/09/20 10:45:17;;;;;;;5.10;0.68;;;;;;;14.31;85.59;102053.69;20790824;28;20063;-61
2022/09/20 10:56:23;;;;;;;4.55;0.75;;;;;;;14.60;78.34;102046.56;20824998;28;20157;-61
2022/09/20 11:07:22;;;;;;;2.55;0.60;;;;;;;14.53;84.40;102061.03;20816580;28;20494;-61
2022/09/20 11:18:11;;;;;;;3.20;0.65;;;;;;;14.02;87.81;102072.91;20817607;28;20037;-60
2022/09/20 11:28:38;;;;;;;5.43;0.57;;;;;;;13.10;94.33;102093.06;20800779;28;20057;-60
2022/09/20 11:39:04;;;;;;;1.85;0.40;;;;;;;12.70;100.00;102088.28;20817605;28;20111;-60
2022/09/20 11:49:52;;;;;;;3.15;0.60;;;;;;;12.87;100.00;102109.16;20804095;28;20589;-60
2022/09/20 12:00:16;;;;;;;4.65;0.80;;;;;;;12.98;100.00;102093.75;20811678;28;20067;-60
2022/09/20 12:10:38;;;;;;;5.72;0.80;;;;;;;13.23;100.00;102086.25;20824955;28;20042;-61
2022/09/20 12:21:08;;;;;;;9.95;0.90;;;;;;;13.45;100.00;102078.88;20798037;28;20065;-60
2022/09/20 12:31:37;;;;;;;3.40;1.02;;;;;;;13.42;100.00;102081.66;20813507;28;20042;-61
2022/09/20 12:42:04;;;;;;;3.92;0.70;;;;;;;13.61;100.00;102083.16;20822591;28;20037;-60
2022/09/20 12:52:55;;;;;;;3.83;0.77;;;;;;;14.16;96.65;102091.31;20803352;28;20481;-60
2022/09/20 13:03:27;;;;;;;2.70;0.77;;;;;;;14.14;97.64;102090.56;20798243;28;20053;-61
2022/09/20 13:14:15;;;;;;;2.63;0.70;;;;;;;15.00;89.23;102087.78;20803735;28;20041;-60
2022/09/20 13:24:43;;;;;;;2.42;0.70;;;;;;;15.40;84.24;102092.25;20805304;28;20391;-61
2022/09/20 13:35:11;;;;;;;8.45;0.85;;;;;;;14.01;95.12;102107.91;20821024;28;20044;-61
2022/09/20 13:45:33;;;;;;;1.85;0.50;;;;;;;13.33;100.00;102118.84;20810611;28;20050;-60
2022/09/20 13:55:54;;;;;;;4.50;0.90;;;;;;;13.50;100.00;102118.78;20798404;28;20379;-61
2022/09/20 14:06:16;;;;;;;;;;;;;;;13.64;100.00;102113.59;20805359;28;20045;-59
2022/09/20 14:16:39;;;;;;;6.77;1.07;;;;;;;13.72;99.45;102111.38;20793932;28;19948;-61
2022/09/20 14:27:21;;;;;;;4.25;0.85;;;;;;;14.20;92.53;102133.00;20808869;28;20041;-60
2022/09/20 14:37:53;;;;;;;6.30;1.20;;;;;;;13.88;98.16;102126.16;20822609;28;21211;-60
2022/09/20 14:48:15;;;;;;;4.20;0.90;;;;;;;13.45;99.17;102143.53;20813088;28;20045;-60
2022/09/20 14:59:12;;;;;;;8.05;1.17;;;;;;;13.21;100.00;102130.00;20814112;28;20045;-60
2022/09/20 15:09:34;;;;;;;8.18;1.50;;;;;;;13.50;100.00;102121.41;20805100;28;20103;-60
2022/09/20 15:19:56;;;;;;;7.65;1.30;;;;;;;13.45;100.00;102128.66;20807668;28;20042;-60
2022/09/20 15:30:21;;;;;;;10.50;1.73;;;;;;;13.49;100.00;102140.66;20813384;28;20575;-59
2022/09/20 15:40:46;;;;;;;10.02;1.42;;;;;;;13.58;100.00;102134.91;20811012;28;20046;-60
2022/09/20 15:51:10;;;;;;;6.25;1.50;;;;;;;14.58;95.08;102140.28;20812788;28;20079;-60
2022/09/20 16:01:38;;;;;;;3.53;1.10;;;;;;;14.37;92.66;102127.63;20808230;28;20046;-60
2022/09/20 16:12:00;;;;;;;5.85;1.10;;;;;;;14.76;92.73;102135.75;20809447;28;20038;-61
2022/09/20 16:22:22;;;;;;;5.32;1.10;;;;;;;14.10;94.83;102144.13;20802656;28;20050;-60
2022/09/20 16:32:45;;;;;;;3.17;0.93;;;;;;;14.20;94.52;102166.28;20807974;28;20038;-61
2022/09/20 16:43:07;;;;;;;7.28;1.10;;;;;;;14.12;95.98;102163.19;20811743;28;20041;-61
2022/09/20 16:53:29;;;;;;;5.72;1.00;;;;;;;13.88;98.23;102169.84;20793317;28;20437;-60
2022/09/20 17:03:50;;;;;;;5.60;1.48;;;;;;;13.57;100.00;102177.75;20795784;28;20096;-61
2022/09/20 17:14:12;;;;;;;;;;;;;;;13.46;100.00;102176.66;20791706;28;20107;-61
2022/09/20 17:24:34;;;;;;;9.85;2.60;;;;;;;13.14;100.00;102186.25;20789539;28;19925;-62
2022/09/20 17:34:55;;;;;;;8.35;2.78;;;;;;;12.65;100.00;102194.09;20794865;28;20660;-62
2022/09/20 17:45:17;;;;;;;6.82;2.70;;;;;;;12.55;100.00;102200.72;20783652;28;20092;-62
2022/09/20 17:55:39;;;;;;;8.02;2.97;;;;;;;12.33;100.00;102218.41;20784165;28;20081;-62
2022/09/20 18:06:09;;;;;;;8.35;4.85;;;;;;;12.27;100.00;102230.94;20784009;28;20049;-61
2022/09/20 18:16:32;;;;;;;14.13;5.33;;;;;;;12.06;100.00;102245.06;20778805;28;20045;-62
2022/09/20 18:26:54;;;;;;;11.35;6.93;;;;;;;11.92;100.00;102255.34;20779938;28;20046;-62
2022/09/20 18:37:19;;;;;;;15.02;5.55;;;;;;;11.92;100.00;102263.19;20789150;28;20581;-62
2022/09/20 18:47:42;;;;;;;11.15;6.03;;;;;;;11.71;100.00;102272.00;20782105;28;20123;-62
2022/09/20 18:58:04;;;;;;;36.42;7.00;;;;;;;11.51;100.00;102274.63;20785828;28;20751;-61
2022/09/20 19:08:39;;;;;;;15.75;6.32;;;;;;;11.44;100.00;102288.91;20797189;28;20069;-63
2022/09/20 19:19:13;;;;;;;10.63;5.95;;;;;;;11.25;100.00;102297.63;20804611;28;20141;-62
2022/09/20 19:29:36;;;;;;;20.13;6.55;;;;;;;11.09;100.00;102307.84;20808144;28;20049;-62
2022/09/20 19:40:10;;;;;;;14.57;6.78;;;;;;;11.06;100.00;102318.41;20803327;28;20440;-61
2022/09/20 19:50:44;;;;;;;14.75;8.30;;;;;;;10.95;100.00;102327.63;20790055;28;20525;-62
2022/09/20 20:01:07;;;;;;;14.80;8.82;;;;;;;11.26;100.00;102336.69;20798849;28;20098;-61
2022/09/20 20:11:42;;;;;;;16.73;8.93;;;;;;;10.86;100.00;102344.53;20796959;28;20045;-62
2022/09/20 20:22:19;;;;;;;15.10;7.35;;;;;;;10.67;100.00;102351.41;20796161;28;20472;-62
2022/09/20 20:32:40;;;;;;;18.70;7.20;;;;;;;10.59;100.00;102347.41;20786955;28;20045;-62
2022/09/20 20:43:02;;;;;;;16.17;6.00;;;;;;;10.52;100.00;102358.13;20805148;28;20045;-62
2022/09/20 20:53:23;;;;;;;12.30;5.60;;;;;;;10.34;100.00;102366.66;20807255;28;20037;-62
2022/09/20 21:03:51;;;;;;;9.47;4.70;;;;;;;10.16;100.00;102372.63;20791624;28;20123;-62
2022/09/20 21:14:14;;;;;;;10.75;5.80;;;;;;;10.15;100.00;102376.13;20793284;28;20060;-61
2022/09/20 21:24:36;;;;;;;9.18;4.35;;;;;;;10.18;100.00;102386.44;20791379;28;20107;-64
2022/09/20 21:34:58;;;;;;;19.00;5.00;;;;;;;10.08;100.00;102385.94;20792910;28;20049;-62
2022/09/20 21:45:23;;;;;;;9.05;4.10;;;;;;;9.94;100.00;102397.72;20804163;28;20053;-63
2022/09/20 21:55:45;;;;;;;9.52;4.25;;;;;;;9.82;100.00;102399.00;20827896;28;20053;-63
2022/09/20 22:06:17;;;;;;;16.37;4.07;;;;;;;9.80;100.00;102395.66;20807846;28;20050;-64
2022/09/20 22:16:41;;;;;;;14.20;4.32;;;;;;;9.66;100.00;102408.31;20807244;28;20640;-64
2022/09/20 22:27:03;;;;;;;9.88;4.60;;;;;;;9.63;100.00;102410.16;20800309;28;20046;-64
2022/09/20 22:37:24;;;;;;;14.03;5.60;;;;;;;9.49;100.00;102407.19;20807830;28;20429;-63
2022/09/20 22:47:46;;;;;;;12.77;5.40;;;;;;;9.50;100.00;102415.88;20813112;28;20076;-63
2022/09/20 22:58:07;;;;;;;17.30;4.57;;;;;;;9.48;100.00;102413.28;20818344;28;20091;-63
2022/09/20 23:08:32;;;;;;;7.83;4.43;;;;;;;9.22;100.00;102421.16;20821092;28;20053;-64
2022/09/20 23:18:57;;;;;;;10.20;4.07;;;;;;;9.18;100.00;102423.91;20821760;28;20383;-63
2022/09/20 23:29:18;;;;;;;6.97;3.78;;;;;;;9.13;100.00;102424.06;20819116;28;20037;-63
2022/09/20 23:39:40;;;;;;;9.60;3.97;;;;;;;8.97;100.00;102435.88;20814732;28;20103;-63
2022/09/20 23:50:02;;;;;;;5.93;3.45;;;;;;;8.89;100.00;102443.06;20812717;28;20037;-64
